CLT TRACON Summary / KCLT TAF
CLT TRACON Summary:
Expect VFR conditions in mostly clear skies. Convection is not expected. Surface winds will be northeast to southeast at 3-6kts. Flight Hazards in the TRACON airspace: None Expected.

Updated: 8/31/2015 8:12 PM
CLT Terminal Aerodrome Forecast:

FTUS42 KGSP 010532
TAFCLT
TAF
KCLT 010532Z 0106/0206 00000KT P6SM FEW070
     FM011500 33003KT P6SM SCT060
     FM020000 20003KT P6SM BKN070=
CLT TRACON Area Remark:
None.
Convective Gate Forecast / Collaborative Convective Forecast Product / Vertical Wind Profile
Convective Gate Forecast
-->
AIRMETs & SIGMETS/ Southeast Radar loop / Satellite Image (click on image to enlarge)

Southeast Radar Loop

 



USA.gov is the U.S. government's official web portal to all federal, state and local government web resources and services.